Historyczne dane pomiarowe

Dodano dane terminowe – wersja testowa.

Dane z okresu 1951-2019

Wersja bazy: 1.34 [2019-03-16, lista zmian], aktualizacja planowana na 2019-04-15

Dane meteo z obszaru Polski uzyskane na podstawie danych udostępnionych przez Instytut Meteorologii i Gospodarki Wodnej – Państwowy Instytut Badawczy.

 

Wybierz Datę:    

       

TemperaturaWilgotnośćWiatrCiśnienieOpadyŚniegCzas trwania zjawisk
 Stacja t tx tn tng RH VA  wxwx mslp ppp RRR   cm mm wxwxwxwxwxwxwx
1994-08-14 12.6 17.4 10.8- 76.5- 4.7 8.7---- 6.4------------
1994-08-13 17.7 21.9 14.0- 76.3- 5.3 3.3---- 4.1------------
1994-08-12 18.9 21.6 14.7- 70.5- 6.0 1.7---- 6.6------------
1994-08-11 19.8 23.9 15.1- 66.8- 2.3 2.0---- 0.0------------
1994-08-10 18.5 23.2 13.8- 75.5- 1.0 2.3---- 0.0------------
1994-08-09 19.0 23.0 14.8- 78.8- 2.0 2.3---- 0.0------------
1994-08-08 18.7 22.6 13.4- 63.8- 1.0 2.0---- 0.0------------
1994-08-07 19.4 22.4 16.0- 70.5- 2.0 5.3---- 0.0------------
1994-08-06 22.9 26.2 21.0- 61.5- 3.0 6.0---- 0.0------------
1994-08-05 20.5 24.0 13.1- 80.8- 0.7 2.7---- 0.0------------
1994-08-04 20.2 23.0 16.6- 79.3- 1.0 2.7---- 0.0------------
1994-08-03 19.5 21.9 16.8- 89.3- 7.0 2.7---- 0.0------------
1994-08-02 21.2 24.7 17.3- 85.5- 4.7 3.7---- 21.8------------
1994-08-01 21.7 24.7 18.0- 75.0- 4.7 5.7---- 0.0------------
1994-07-31 23.3 26.6 21.6- 84.8- 5.0 5.0---- 3.6------------
1994-07-30 25.0 28.9 20.7- 70.0- 4.3 2.3---- 0.0------------
1994-07-29 25.0 29.6 19.7- 60.0- 2.0 1.7---- 0.0------------
1994-07-28 22.4 26.1 18.6- 78.8- 0.0 2.3---- 0.0------------
1994-07-27 24.3 29.7 20.6- 48.5- 0.0 4.3---- 0.0------------
1994-07-26 22.1 25.0 18.5- 72.5- 0.0 3.0---- 0.0------------
1994-07-25 21.5 24.8 17.6- 73.0- 0.0 2.7---- 0.0------------
1994-07-24 21.0 25.5 17.2- 59.5- 0.0 3.7---- 0.0------------
1994-07-23 20.3 24.3 13.9- 57.0- 1.0 2.0---- 0.0------------
1994-07-22 18.7 22.6 11.9- 71.3- 0.7 2.3---- 0.0------------
1994-07-21 18.9 23.1 11.4- 58.8- 0.0 3.0---- 0.0------------
1994-07-20 18.9 22.6 13.6- 64.5- 0.7 2.3---- 0.0------------
1994-07-19 18.4 21.4 13.7- 57.3- 1.3 2.7---- 0.0------------
1994-07-18 17.9 22.0 11.7- 55.5- 2.0 2.0---- 0.0------------
1994-07-17 19.2 22.6 16.6- 62.3- 3.3 5.3---- 0.0------------
1994-07-16 20.1 22.7 17.8- 79.0- 6.0 6.0---- 0.0------------
1994-07-15 23.7 29.8 19.8- 62.8- 2.3 5.0---- 0.2------------
1994-07-14 23.3 27.0 19.7- 61.5- 1.0 2.3---- 0.0------------
1994-07-13 21.7 24.5 18.7- 61.5- 0.0 3.7---- 0.0------------
1994-07-12 20.2 23.3 15.1- 68.5- 0.0 3.0---- 0.0------------
1994-07-11 18.3 21.2 13.3- 75.5- 0.0 2.0---- 0.0------------
1994-07-10 17.5 20.6 13.8- 81.8- 0.7 3.3---- 0.0------------
1994-07-09 16.7 19.5 12.9- 78.3- 0.7 2.0---- 0.0------------
1994-07-08 16.9 20.0 14.1- 75.5- 3.0 2.7---- 0.0------------
1994-07-07 14.9 18.5 8.1- 70.8- 0.0 2.3---- 0.0------------
1994-07-06 15.2 18.5 11.0- 73.8- 0.7 2.3---- 0.0------------
1994-07-05 14.3 18.0 10.5- 79.5- 1.3 3.3---- 0.0------------
1994-07-04 17.1 20.6 12.7- 56.0- 0.0 2.3---- 0.0------------
1994-07-03 16.0 19.2 10.9- 65.0- 0.0 1.7---- 0.0------------
1994-07-02 14.6 18.5 9.0- 74.5- 0.0 0.0---- 0.0------------
1994-07-01 14.0 16.8 12.4- 75.3- 4.0 8.0---- 0.0------------
1994-06-30 16.4 22.6 14.6- 74.3- 1.7 9.0---- 0.0------------
1994-06-29 18.6 22.1 13.6- 74.3- 1.0 5.7---- 7.6------------
1994-06-28 17.4 20.9 13.1- 69.8- 0.7 3.7---- 0.0------------
1994-06-27 17.1 20.6 14.1- 68.0- 1.0 7.7---- 0.0------------
1994-06-26 21.1 30.1 13.7- 42.8- 0.0 7.7---- 0.0------------
1994-06-25 13.8 18.2 7.3- 68.0- 0.0 4.3---- 0.0------------
1994-06-24 12.8 15.0 11.0- 72.8- 1.0 11.0---- 0.0------------
1994-06-23 12.8 15.1 11.3- 64.0- 4.3 16.0---- 0.0------------
1994-06-22 15.6 18.1 13.5- 66.3- 4.7 11.0---- 0.0------------
1994-06-21 13.2 17.1 8.7- 67.0- 2.3 5.7---- 1.1------------
1994-06-20 12.8 15.1 10.7- 65.3- 2.0 11.0---- 0.0------------
1994-06-19 11.9 14.1 10.3- 88.3- 7.7 8.7---- 7.1------------
1994-06-18 10.6 14.1 6.0- 78.8- 4.7 4.0---- 4.1------------
1994-06-17 10.6 12.5 5.7- 69.3- 2.3 5.7---- 0.0------------
1994-06-16 10.1 12.7 6.8- 74.3- 5.7 9.3---- 1.9------------
271.9 ms

 

Źródłem pochodzenia danych jest Instytut Meteorologii i Gospodarki Wodnej – Państwowy Instytut Badawczy. Dane Instytutu Meteorologii i Gospodarki Wodnej – Państwowego Instytutu Badawczego zostały przetworzone.

Dane źródłowe można odnaleźć na stronie https://dane.imgw.pl